createdAt,value
2022-11-05T00:00:00.445Z,91.6
2022-11-05T00:05:00.432Z,91.3
2022-11-05T00:10:00.289Z,91.3
2022-11-05T00:15:00.139Z,91.3
2022-11-05T00:20:00.098Z,91.6
2022-11-05T00:25:00.199Z,91.6
2022-11-05T00:30:00.278Z,91.6
2022-11-05T00:35:00.210Z,91.9
2022-11-05T00:40:00.211Z,91.9
2022-11-05T00:45:00.225Z,91.6
2022-11-05T00:50:00.220Z,92
2022-11-05T00:55:00.238Z,91.7
2022-11-05T01:00:00.248Z,91.7
2022-11-05T01:05:00.305Z,92
2022-11-05T01:10:00.247Z,92.3
2022-11-05T01:15:00.254Z,92.3
2022-11-05T01:20:00.252Z,92.3
2022-11-05T01:25:00.287Z,92.9
2022-11-05T01:30:00.178Z,92.6
2022-11-05T01:35:00.174Z,92.9
2022-11-05T01:40:00.206Z,92.9
2022-11-05T01:45:00.184Z,92.9
2022-11-05T01:50:00.205Z,92.3
2022-11-05T01:55:00.197Z,92.6
2022-11-05T02:00:00.208Z,92.6
2022-11-05T02:05:00.207Z,92.6
2022-11-05T02:10:00.206Z,92.6
2022-11-05T02:15:00.230Z,92.6
2022-11-05T02:20:00.243Z,92.3
2022-11-05T02:25:00.261Z,92.6
2022-11-05T02:30:00.234Z,92.3
2022-11-05T02:35:00.280Z,92.6
2022-11-05T02:40:00.249Z,92.6
2022-11-05T02:45:00.285Z,92.6
2022-11-05T02:50:00.259Z,92.6
2022-11-05T02:55:00.272Z,92.6
2022-11-05T03:00:00.267Z,92.3
2022-11-05T03:05:01.359Z,92.6
2022-11-05T03:10:01.369Z,92.3
2022-11-05T03:15:01.375Z,92.6
2022-11-05T03:20:01.378Z,92.5
2022-11-05T03:25:01.382Z,92.6
2022-11-05T03:30:01.385Z,92.6
2022-11-05T03:35:01.403Z,92.6
2022-11-05T03:40:01.407Z,92.3
2022-11-05T03:45:01.400Z,92.6
2022-11-05T03:50:01.423Z,92.3
2022-11-05T03:55:01.417Z,92.3
2022-11-05T04:00:01.424Z,92.6
2022-11-05T04:05:01.450Z,92.6
2022-11-05T04:10:01.425Z,92.2
2022-11-05T04:15:01.429Z,92.9
2022-11-05T04:20:01.460Z,92.6
2022-11-05T04:25:01.492Z,92.6
2022-11-05T04:30:01.517Z,92.9
2022-11-05T04:35:01.448Z,92.9
2022-11-05T04:40:01.450Z,92.9
2022-11-05T04:45:01.467Z,92.6
2022-11-05T04:50:01.465Z,92.9
2022-11-05T04:55:01.469Z,92.6
2022-11-05T05:00:01.492Z,92.9
2022-11-05T05:05:01.481Z,92.9
2022-11-05T05:10:01.482Z,92.6
2022-11-05T05:15:01.491Z,92.3
2022-11-05T05:20:01.499Z,92.3
2022-11-05T05:25:01.495Z,92.3
2022-11-05T05:30:01.504Z,92.3
2022-11-05T05:35:01.514Z,92.3
2022-11-05T05:40:01.513Z,92.9
2022-11-05T05:45:01.537Z,92.9
2022-11-05T05:50:01.534Z,92.9
2022-11-05T05:55:01.527Z,92.9
2022-11-05T06:00:01.539Z,92.9
2022-11-05T06:05:01.569Z,92.9
2022-11-05T06:10:00.152Z,92.9
2022-11-05T06:15:00.159Z,92.9
2022-11-05T06:20:00.181Z,93.2
2022-11-05T06:25:00.185Z,92.9
2022-11-05T06:30:00.166Z,92.9
2022-11-05T06:35:00.173Z,92.9
2022-11-05T06:40:00.185Z,92.6
2022-11-05T06:45:00.187Z,92.9
2022-11-05T06:50:00.183Z,92.9
2022-11-05T06:55:00.193Z,92.9
2022-11-05T07:00:04.437Z,92.6
2022-11-05T07:05:00.208Z,92.3
2022-11-05T07:10:00.321Z,92.3
2022-11-05T07:15:00.354Z,92.3
2022-11-05T07:20:00.274Z,92.6
2022-11-05T07:25:00.235Z,92.3
2022-11-05T07:30:00.241Z,91.1
2022-11-05T07:35:00.248Z,89.2
2022-11-05T07:40:00.249Z,89.6
2022-11-05T07:45:00.237Z,89.3
2022-11-05T07:50:00.260Z,89
2022-11-05T07:55:00.253Z,88
2022-11-05T08:00:00.268Z,88.3
2022-11-05T08:10:00.277Z,87.7
2022-11-05T08:15:00.279Z,86.5
2022-11-05T08:20:00.292Z,87.4
2022-11-05T08:25:05.593Z,87.1
2022-11-05T08:30:00.320Z,87.5
2022-11-05T08:40:00.316Z,87.5
2022-11-05T08:45:00.315Z,86.2
2022-11-05T08:50:00.323Z,85.6
2022-11-05T08:55:00.320Z,86.5
2022-11-05T09:00:00.338Z,84.9
2022-11-05T09:05:00.337Z,85.6
2022-11-05T09:10:00.342Z,84.7
2022-11-05T09:15:00.347Z,83.7
2022-11-05T09:20:00.351Z,84.4
2022-11-05T09:25:00.373Z,84.4
2022-11-05T09:30:00.359Z,83.8
2022-11-05T09:35:00.365Z,84.4
2022-11-05T09:45:00.380Z,82.5
2022-11-05T09:50:00.380Z,81.9
2022-11-05T09:55:00.387Z,82.5
2022-11-05T10:00:00.400Z,83.1
2022-11-05T10:05:03.663Z,81.9
2022-11-05T10:10:00.402Z,82.5
2022-11-05T10:15:00.406Z,82.5
2022-11-05T10:20:00.443Z,82.5
2022-11-05T10:25:00.426Z,82.5
2022-11-05T10:30:00.433Z,82.6
2022-11-05T10:35:00.422Z,81.3
2022-11-05T10:40:00.430Z,81.3
2022-11-05T10:45:00.437Z,81.6
2022-11-05T10:50:00.435Z,81
2022-11-05T10:55:00.439Z,79.1
2022-11-05T11:00:00.612Z,79.8
2022-11-05T11:05:00.538Z,80.4
2022-11-05T11:10:00.597Z,81.3
2022-11-05T11:15:00.586Z,80.1
2022-11-05T11:20:00.636Z,80.1
2022-11-05T11:25:00.487Z,80
2022-11-05T11:30:00.496Z,80.4
2022-11-05T11:35:00.512Z,80.1
2022-11-05T11:40:00.501Z,79.4
2022-11-05T11:45:00.504Z,77.6
2022-11-05T11:50:00.493Z,77.6
2022-11-05T11:55:00.503Z,77.2
2022-11-05T12:00:09.422Z,76.3
2022-11-05T12:05:00.502Z,77.5
2022-11-05T12:10:00.382Z,77.8
2022-11-05T12:15:00.240Z,78.2
2022-11-05T12:20:00.136Z,78.8
2022-11-05T12:25:00.108Z,78.2
2022-11-05T12:30:00.128Z,75.7
2022-11-05T12:35:00.114Z,75.7
2022-11-05T12:40:00.126Z,76.6
2022-11-05T12:45:00.110Z,76.9
2022-11-05T12:50:00.163Z,76
2022-11-05T12:55:00.131Z,75.7
2022-11-05T13:00:00.129Z,73.8
2022-11-05T13:05:00.142Z,74.4
2022-11-05T13:10:00.158Z,73.5
2022-11-05T13:15:00.153Z,73.5
2022-11-05T13:20:00.156Z,74.8
2022-11-05T13:25:00.164Z,72.6
2022-11-05T13:30:00.146Z,73.2
2022-11-05T13:35:00.170Z,73.2
2022-11-05T13:40:00.222Z,74.1
2022-11-05T13:45:00.202Z,74.4
2022-11-05T13:50:00.213Z,75.6
2022-11-05T13:55:00.196Z,76.5
2022-11-05T14:00:00.203Z,77.5
2022-11-05T14:05:01.575Z,75.6
2022-11-05T14:10:00.210Z,75.7
2022-11-05T14:15:00.214Z,74.1
2022-11-05T14:20:00.224Z,74.5
2022-11-05T14:25:00.231Z,73.2
2022-11-05T14:30:00.229Z,73.5
2022-11-05T14:35:00.224Z,73.5
2022-11-05T14:45:00.239Z,75
2022-11-05T14:50:00.303Z,74
2022-11-05T15:05:00.310Z,75.6
2022-11-05T15:10:03.208Z,76.2
2022-11-05T15:15:00.318Z,76.8
2022-11-05T15:20:00.393Z,76.8
2022-11-05T15:25:00.400Z,77.4
2022-11-05T15:30:00.379Z,78
2022-11-05T15:35:00.378Z,78
2022-11-05T15:40:00.387Z,78.6
2022-11-05T15:45:00.320Z,79.3
2022-11-05T15:50:00.330Z,79.2
2022-11-05T15:55:01.327Z,79.9
2022-11-05T16:00:00.315Z,80.8
2022-11-05T16:05:00.335Z,80.2
2022-11-05T16:10:00.330Z,79.2
2022-11-05T16:15:00.331Z,81.1
2022-11-05T16:20:00.496Z,80.5
2022-11-05T16:25:00.345Z,80.5
2022-11-05T16:30:00.447Z,81.1
2022-11-05T16:35:00.380Z,80.8
2022-11-05T16:40:00.450Z,81.7
2022-11-05T16:45:00.366Z,81.1
2022-11-05T16:50:00.373Z,81
2022-11-05T16:55:00.391Z,81.9
2022-11-05T17:00:00.400Z,82.9
2022-11-05T17:05:00.391Z,82.8
2022-11-05T17:10:00.390Z,83.1
2022-11-05T17:15:00.397Z,83.7
2022-11-05T17:20:00.404Z,83.4
2022-11-05T17:25:00.406Z,83.4
2022-11-05T17:30:00.404Z,83.9
2022-11-05T17:35:00.424Z,83.8
2022-11-05T17:40:00.418Z,84.8
2022-11-05T17:45:00.424Z,84.4
2022-11-05T17:50:00.452Z,84.4
2022-11-05T17:55:00.439Z,84.3
2022-11-05T18:00:00.446Z,85.2
2022-11-05T18:05:00.451Z,86.1
2022-11-05T18:10:00.336Z,86.4
2022-11-05T18:15:00.194Z,87.3
2022-11-05T18:20:00.093Z,87.9
2022-11-05T18:25:00.109Z,86.7
2022-11-05T18:30:00.114Z,87.3
2022-11-05T18:35:00.102Z,87.5
2022-11-05T18:40:00.118Z,88.2
2022-11-05T18:45:00.121Z,88.1
2022-11-05T18:50:00.131Z,89
2022-11-05T18:55:00.130Z,89
2022-11-05T19:00:00.136Z,89.9
2022-11-05T19:05:27.317Z,90.2
2022-11-05T19:10:00.147Z,90.2
2022-11-05T19:15:02.620Z,90.8
2022-11-05T19:20:00.154Z,90.8
2022-11-05T19:25:00.163Z,90.8
2022-11-05T19:30:00.165Z,90.8
2022-11-05T19:35:00.164Z,91.1
2022-11-05T19:40:00.195Z,91.1
2022-11-05T19:45:16.585Z,90.8
2022-11-05T19:50:00.216Z,90.8
2022-11-05T19:55:00.219Z,90.8
2022-11-05T20:00:00.219Z,90.8
2022-11-05T20:05:00.246Z,91.1
2022-11-05T20:10:00.256Z,91
2022-11-05T20:15:00.252Z,91.4
2022-11-05T20:20:00.249Z,91.3
2022-11-05T20:25:00.279Z,92
2022-11-05T20:30:00.269Z,92.3
2022-11-05T20:35:00.298Z,92.3
2022-11-05T20:40:00.367Z,92.6
2022-11-05T20:45:00.332Z,92
2022-11-05T20:50:00.253Z,92.3
2022-11-05T20:55:00.309Z,92.6
2022-11-05T21:00:00.365Z,92.5
2022-11-05T21:05:00.343Z,92.5
2022-11-05T21:10:00.320Z,92.5
2022-11-05T21:15:00.339Z,92.8
2022-11-05T21:20:00.319Z,92.8
2022-11-05T21:25:00.325Z,92.8
2022-11-05T21:30:00.391Z,92.8
2022-11-05T21:35:00.332Z,92.5
2022-11-05T21:40:00.384Z,92.5
2022-11-05T21:45:00.803Z,92.5
2022-11-05T21:50:00.369Z,92.8
2022-11-05T21:55:00.354Z,92.8
2022-11-05T22:00:00.359Z,93.1
2022-11-05T22:05:00.461Z,93.4
2022-11-05T22:10:00.376Z,93.4
2022-11-05T22:15:00.372Z,93.4
2022-11-05T22:20:00.378Z,93.3
2022-11-05T22:25:00.358Z,93.6
2022-11-05T22:30:00.428Z,93.9
2022-11-05T22:35:00.417Z,93.9
2022-11-05T22:40:00.441Z,94.2
2022-11-05T22:45:00.462Z,94.6
2022-11-05T22:50:00.366Z,94.2
2022-11-05T22:55:00.431Z,94.3
2022-11-05T23:00:00.442Z,94.2
2022-11-05T23:05:00.436Z,94.3
2022-11-05T23:10:00.436Z,94.2
2022-11-05T23:15:00.442Z,94.2
2022-11-05T23:20:00.452Z,94.2
2022-11-05T23:25:00.466Z,93.9
2022-11-05T23:30:00.462Z,93.6
2022-11-05T23:35:00.477Z,94.2
2022-11-05T23:40:00.500Z,94.2
2022-11-05T23:45:00.475Z,93.9
2022-11-05T23:50:00.507Z,94.2
2022-11-05T23:55:00.506Z,94.2
